createdAt,value
2023-05-24T00:01:38.910Z,7.65
2023-05-24T00:04:12.022Z,4.88
2023-05-24T00:06:43.628Z,5.45
2023-05-24T00:09:13.713Z,4.38
2023-05-24T00:11:48.013Z,6.75
2023-05-24T00:14:22.304Z,6.88
2023-05-24T00:16:52.463Z,5.65
2023-05-24T00:19:23.216Z,4.82
2023-05-24T00:21:53.760Z,4.95
2023-05-24T00:24:22.675Z,4.72
2023-05-24T00:27:04.997Z,4.60
2023-05-24T00:29:38.043Z,4.90
2023-05-24T00:32:08.781Z,6.25
2023-05-24T00:35:01.564Z,4.70
2023-05-24T00:37:30.723Z,5.07
2023-05-24T00:40:02.517Z,4.93
2023-05-24T00:42:34.397Z,5.03
2023-05-24T00:45:03.058Z,5.22
2023-05-24T00:47:32.022Z,4.82
2023-05-24T00:50:06.489Z,6.10
2023-05-24T00:52:36.297Z,5.70
2023-05-24T00:55:06.774Z,5.63
2023-05-24T00:57:40.030Z,4.55
2023-05-24T01:00:14.530Z,4.65
2023-05-24T01:02:53.551Z,5.43
2023-05-24T01:05:25.600Z,5.05
2023-05-24T01:08:12.474Z,5.68
2023-05-24T01:10:53.424Z,5.45
2023-05-24T01:13:36.241Z,5.03
2023-05-24T01:16:13.074Z,4.93
2023-05-24T01:18:48.351Z,5.05
2023-05-24T01:21:49.702Z,5.40
2023-05-24T01:24:32.227Z,5.40
2023-05-24T01:27:12.287Z,6.25
2023-05-24T01:29:42.866Z,5.60
2023-05-24T01:32:12.300Z,4.82
2023-05-24T01:34:41.115Z,5.88
2023-05-24T01:37:10.324Z,6.57
2023-05-24T01:39:39.891Z,5.28
2023-05-24T01:42:26.201Z,5.93
2023-05-24T01:48:08.450Z,5.88
2023-05-24T01:50:45.629Z,5.40
2023-05-24T01:53:19.506Z,5.70
2023-05-24T01:55:53.602Z,6.45
2023-05-24T01:58:31.353Z,5.63
2023-05-24T02:01:03.517Z,6.30
2023-05-24T02:03:38.205Z,5.22
2023-05-24T02:06:11.053Z,5.85
2023-05-24T02:08:56.362Z,5.70
2023-05-24T02:11:24.950Z,5.63
2023-05-24T02:13:55.450Z,4.97
2023-05-24T02:16:27.692Z,5.75
2023-05-24T02:18:58.227Z,5.07
2023-05-24T02:21:28.304Z,5.10
2023-05-24T02:23:58.341Z,5.85
2023-05-24T02:26:28.562Z,4.97
2023-05-24T02:28:58.837Z,6.18
2023-05-24T02:31:28.948Z,5.97
2023-05-24T02:33:58.469Z,6.90
2023-05-24T02:36:28.891Z,5.65
2023-05-24T02:38:58.838Z,5.85
2023-05-24T02:41:28.268Z,6.15
2023-05-24T02:43:58.080Z,5.45
2023-05-24T02:46:26.855Z,6.05
2023-05-24T02:48:56.072Z,5.05
2023-05-24T02:51:26.459Z,6.55
2023-05-24T02:53:55.674Z,5.35
2023-05-24T02:56:28.063Z,5.35
2023-05-24T02:59:00.242Z,6.00
2023-05-24T03:01:30.108Z,5.32
2023-05-24T03:03:59.786Z,4.88
2023-05-24T03:06:31.723Z,5.60
2023-05-24T03:09:00.504Z,5.53
2023-05-24T03:11:29.997Z,4.95
2023-05-24T03:14:00.853Z,6.80
2023-05-24T03:16:29.571Z,6.28
2023-05-24T03:19:00.051Z,4.82
2023-05-24T03:21:29.814Z,5.05
2023-05-24T03:23:58.953Z,5.50
2023-05-24T03:26:28.662Z,5.40
2023-05-24T03:29:01.008Z,5.43
2023-05-24T03:31:30.857Z,4.72
2023-05-24T03:33:59.547Z,5.30
2023-05-24T03:36:29.899Z,5.20
2023-05-24T03:39:04.868Z,5.88
2023-05-24T03:41:33.892Z,5.25
2023-05-24T03:44:05.988Z,5.25
2023-05-24T03:46:36.919Z,5.05
2023-05-24T03:49:06.406Z,5.07
2023-05-24T03:51:35.108Z,4.70
2023-05-24T03:54:04.698Z,4.97
2023-05-24T03:56:33.553Z,5.35
2023-05-24T03:59:04.419Z,4.68
2023-05-24T04:01:36.848Z,4.45
2023-05-24T04:04:06.798Z,5.15
2023-05-24T04:06:38.261Z,4.68
2023-05-24T04:09:15.257Z,4.90
2023-05-24T04:11:43.928Z,3.85
2023-05-24T04:14:17.217Z,4.30
2023-05-24T04:16:50.774Z,4.22
2023-05-24T04:22:02.642Z,4.85
2023-05-24T04:24:31.240Z,4.00
2023-05-24T04:27:01.617Z,4.38
2023-05-24T04:29:33.407Z,4.32
2023-05-24T04:34:47.670Z,5.15
2023-05-24T04:37:17.372Z,4.00
2023-05-24T04:39:47.268Z,4.50
2023-05-24T04:42:18.518Z,4.40
2023-05-24T04:44:47.286Z,4.55
2023-05-24T04:47:19.781Z,5.03
2023-05-24T04:49:48.673Z,5.05
2023-05-24T04:55:06.748Z,4.55
2023-05-24T04:57:35.540Z,4.78
2023-05-24T05:00:09.509Z,4.88
2023-05-24T05:02:43.386Z,4.78
2023-05-24T05:05:13.270Z,5.13
2023-05-24T05:07:42.243Z,4.65
2023-05-24T05:10:15.856Z,5.45
2023-05-24T05:12:52.130Z,4.07
2023-05-24T05:15:24.495Z,5.13
2023-05-24T05:17:59.426Z,4.38
2023-05-24T05:20:29.318Z,4.80
2023-05-24T05:23:03.336Z,5.30
2023-05-24T05:25:32.386Z,3.95
2023-05-24T05:28:01.109Z,4.93
2023-05-24T05:30:36.040Z,4.53
2023-05-24T05:33:12.392Z,4.40
2023-05-24T05:35:42.390Z,4.85
2023-05-24T05:38:17.367Z,4.70
2023-05-24T05:40:48.596Z,4.72
2023-05-24T05:43:22.032Z,4.07
2023-05-24T05:45:50.524Z,3.90
2023-05-24T05:48:34.923Z,4.25
2023-05-24T05:51:04.240Z,4.10
2023-05-24T05:53:36.261Z,4.80
2023-05-24T05:56:07.239Z,4.18
2023-05-24T05:58:39.094Z,3.83
2023-05-24T06:01:08.928Z,4.50
2023-05-24T06:03:42.777Z,4.53
2023-05-24T06:09:11.803Z,4.43
2023-05-24T06:11:45.216Z,4.22
2023-05-24T06:17:11.530Z,3.90
2023-05-24T06:19:41.964Z,4.05
2023-05-24T06:22:11.484Z,4.18
2023-05-24T06:24:49.559Z,4.40
2023-05-24T06:30:31.470Z,4.05
2023-05-24T06:33:03.578Z,3.95
2023-05-24T06:35:41.244Z,4.45
2023-05-24T06:41:03.931Z,3.70
2023-05-24T06:43:41.336Z,4.10
2023-05-24T06:49:09.778Z,3.90
2023-05-24T06:55:27.059Z,4.25
2023-05-24T07:01:06.151Z,4.53
2023-05-24T07:06:33.935Z,3.47
2023-05-24T07:09:25.066Z,4.18
2023-05-24T07:11:54.374Z,3.97
2023-05-24T07:14:26.247Z,4.40
2023-05-24T07:17:09.022Z,4.38
2023-05-24T07:22:27.017Z,4.70
2023-05-24T07:26:01.566Z,4.07
2023-05-24T07:32:30.757Z,3.70
2023-05-24T07:38:04.722Z,4.10
2023-05-24T07:49:38.359Z,4.40
2023-05-24T07:58:18.473Z,4.80
2023-05-24T08:00:50.922Z,3.75
2023-05-24T08:03:21.380Z,3.92
2023-05-24T08:05:53.500Z,4.38
2023-05-24T08:14:03.718Z,4.00
2023-05-24T08:16:38.158Z,4.28
2023-05-24T08:19:08.554Z,4.03
2023-05-24T08:21:42.251Z,4.13
2023-05-24T08:24:11.435Z,4.07
2023-05-24T08:26:40.541Z,3.95
2023-05-24T08:29:09.391Z,4.32
2023-05-24T08:31:38.781Z,3.60
2023-05-24T08:34:08.714Z,3.90
2023-05-24T08:36:44.260Z,4.18
2023-05-24T08:39:13.909Z,4.15
2023-05-24T08:41:43.628Z,4.57
2023-05-24T08:44:17.677Z,4.15
2023-05-24T08:47:01.048Z,4.50
2023-05-24T08:49:52.033Z,4.43
2023-05-24T08:52:24.757Z,4.05
2023-05-24T08:57:41.755Z,4.03
2023-05-24T09:09:06.532Z,3.80
2023-05-24T09:11:50.964Z,4.05
2023-05-24T09:14:20.799Z,4.03
2023-05-24T09:16:51.909Z,3.50
2023-05-24T09:19:22.830Z,3.70
2023-05-24T09:22:10.969Z,3.53
2023-05-24T09:24:55.384Z,3.85
2023-05-24T09:27:25.361Z,3.70
2023-05-24T09:29:57.817Z,4.00
2023-05-24T09:32:26.890Z,4.47
2023-05-24T09:35:01.140Z,4.45
2023-05-24T09:41:13.908Z,4.20
2023-05-24T09:43:55.107Z,3.90
2023-05-24T09:46:25.694Z,4.20
2023-05-24T09:57:36.062Z,3.50
2023-05-24T10:00:18.685Z,3.97
2023-05-24T10:02:53.142Z,3.97
2023-05-24T10:07:54.358Z,3.75
2023-05-24T10:13:09.183Z,3.83
2023-05-24T10:15:43.173Z,3.45
2023-05-24T10:18:14.331Z,3.50
2023-05-24T10:20:44.046Z,3.65
2023-05-24T10:23:21.585Z,3.33
2023-05-24T10:25:58.495Z,3.65
2023-05-24T10:28:30.978Z,3.70
2023-05-24T10:31:14.343Z,3.35
2023-05-24T10:33:49.914Z,4.18
2023-05-24T10:36:26.370Z,3.40
2023-05-24T10:38:56.715Z,3.50
2023-05-24T10:41:29.120Z,3.60
2023-05-24T10:44:08.625Z,3.42
2023-05-24T10:47:27.744Z,3.10
2023-05-24T10:50:00.044Z,3.47
2023-05-24T10:52:46.480Z,3.80
2023-05-24T10:55:16.735Z,3.50
2023-05-24T10:57:48.116Z,3.00
2023-05-24T11:08:55.546Z,3.20
2023-05-24T11:11:35.822Z,3.33
2023-05-24T11:17:14.560Z,3.13
2023-05-24T11:20:00.604Z,3.75
2023-05-24T11:22:34.353Z,3.35
2023-05-24T11:25:14.738Z,3.25
2023-05-24T11:28:00.841Z,2.72
2023-05-24T11:35:56.921Z,3.00
2023-05-24T11:38:31.105Z,2.83
2023-05-24T11:41:18.412Z,3.17
2023-05-24T11:43:48.880Z,3.28
2023-05-24T11:49:07.171Z,2.70
2023-05-24T11:59:59.132Z,2.50
2023-05-24T12:02:40.188Z,2.67
2023-05-24T12:05:26.777Z,2.72
2023-05-24T12:08:30.258Z,2.58
2023-05-24T12:11:02.158Z,2.13
2023-05-24T12:13:35.929Z,3.08
2023-05-24T12:16:12.806Z,3.15
2023-05-24T12:21:33.720Z,2.85
2023-05-24T12:24:21.971Z,2.78
2023-05-24T12:26:51.765Z,2.97
2023-05-24T12:29:24.146Z,2.80
2023-05-24T12:31:54.124Z,2.67
2023-05-24T12:34:42.558Z,2.40
2023-05-24T12:37:37.847Z,2.88
2023-05-24T12:40:28.597Z,2.38
2023-05-24T12:43:00.449Z,2.95
2023-05-24T12:48:20.982Z,3.15
2023-05-24T12:50:51.587Z,2.80
2023-05-24T12:53:25.109Z,2.70
2023-05-24T12:56:12.769Z,3.00
2023-05-24T12:58:43.643Z,2.63
2023-05-24T13:09:44.302Z,2.92
2023-05-24T13:12:30.868Z,3.08
2023-05-24T13:17:48.905Z,2.97
2023-05-24T13:23:23.097Z,2.90
2023-05-24T13:25:52.872Z,3.25
2023-05-24T13:28:25.674Z,3.03
2023-05-24T13:30:55.140Z,2.63
2023-05-24T13:33:26.697Z,2.60
2023-05-24T13:35:58.131Z,2.40
2023-05-24T13:38:41.358Z,2.03
2023-05-24T13:41:17.756Z,2.90
2023-05-24T14:10:54.281Z,2.67
2023-05-24T14:14:20.773Z,2.30
2023-05-24T14:16:22.331Z,2.22
2023-05-24T14:18:51.826Z,2.55
2023-05-24T14:21:23.809Z,2.55
2023-05-24T14:23:53.340Z,2.10
2023-05-24T14:26:24.228Z,2.60
2023-05-24T14:28:56.243Z,2.47
2023-05-24T14:31:26.188Z,2.10
2023-05-24T14:33:55.375Z,2.40
2023-05-24T14:36:39.781Z,2.55
2023-05-24T14:39:09.640Z,2.47
2023-05-24T14:41:40.861Z,2.33
2023-05-24T14:44:13.097Z,2.22
2023-05-24T14:46:47.572Z,2.65
2023-05-24T14:49:32.554Z,3.10
2023-05-24T14:52:06.730Z,2.45
2023-05-24T14:54:40.349Z,2.60
2023-05-24T14:57:10.833Z,2.63
2023-05-24T14:59:40.244Z,2.33
2023-05-24T15:02:23.066Z,2.40
2023-05-24T15:04:52.032Z,2.33
2023-05-24T15:07:23.830Z,2.25
2023-05-24T15:13:03.365Z,2.10
2023-05-24T15:25:03.353Z,2.17
2023-05-24T15:27:32.643Z,2.20
2023-05-24T15:33:04.348Z,2.65
2023-05-24T15:35:58.360Z,2.42
2023-05-24T15:49:18.210Z,2.50
2023-05-24T15:52:03.442Z,2.63
2023-05-24T15:54:34.053Z,2.42
2023-05-24T15:57:05.486Z,2.45
2023-05-24T15:59:39.679Z,2.50
2023-05-24T16:02:14.183Z,2.50
2023-05-24T16:04:59.507Z,2.97
2023-05-24T16:10:28.115Z,2.55
2023-05-24T16:13:19.549Z,2.20
2023-05-24T16:15:55.902Z,3.25
2023-05-24T16:18:27.863Z,2.55
2023-05-24T16:20:59.916Z,2.60
2023-05-24T16:23:32.818Z,2.58
2023-05-24T16:26:03.267Z,2.30
2023-05-24T16:28:45.154Z,3.00
2023-05-24T16:31:23.802Z,2.80
2023-05-24T16:33:52.678Z,2.72
2023-05-24T16:36:24.925Z,2.70
2023-05-24T16:41:51.145Z,2.67
2023-05-24T16:56:06.718Z,3.10
2023-05-24T17:01:33.532Z,2.78
2023-05-24T17:04:04.709Z,2.80
2023-05-24T17:06:34.717Z,3.33
2023-05-24T17:09:07.999Z,3.00
2023-05-24T17:11:43.785Z,2.90
2023-05-24T17:14:16.412Z,3.03
2023-05-24T17:16:52.490Z,3.17
2023-05-24T17:19:26.562Z,2.95
2023-05-24T17:21:56.512Z,3.20
2023-05-24T17:24:30.963Z,3.63
2023-05-24T17:27:05.461Z,3.97
2023-05-24T17:29:36.389Z,3.53
2023-05-24T17:32:05.478Z,3.28
2023-05-24T17:34:35.594Z,3.15
2023-05-24T17:37:05.756Z,3.20
2023-05-24T17:39:39.971Z,3.80
2023-05-24T17:42:09.846Z,3.70
2023-05-24T17:44:40.477Z,3.50
2023-05-24T17:47:10.097Z,2.90
2023-05-24T17:52:30.586Z,3.00
2023-05-24T17:55:09.420Z,3.33
2023-05-24T17:57:38.432Z,3.72
2023-05-24T18:00:10.070Z,3.40
2023-05-24T18:02:40.231Z,3.42
2023-05-24T18:08:09.004Z,2.85
2023-05-24T18:10:40.134Z,2.88
2023-05-24T18:13:11.599Z,3.30
2023-05-24T18:15:42.272Z,4.10
2023-05-24T18:18:12.771Z,3.97
2023-05-24T18:20:42.015Z,3.35
2023-05-24T18:23:15.131Z,3.63
2023-05-24T18:25:47.488Z,3.45
2023-05-24T18:28:17.389Z,3.55
2023-05-24T18:30:46.423Z,3.10
2023-05-24T18:33:16.572Z,3.40
2023-05-24T18:35:46.763Z,3.88
2023-05-24T18:38:19.764Z,3.53
2023-05-24T18:40:51.397Z,3.30
2023-05-24T18:43:20.875Z,3.20
2023-05-24T18:45:49.998Z,3.47
2023-05-24T18:48:19.817Z,3.30
2023-05-24T18:51:04.190Z,3.90
2023-05-24T18:53:44.053Z,3.80
2023-05-24T18:56:16.690Z,3.55
2023-05-24T18:58:50.092Z,3.65
2023-05-24T19:01:19.888Z,3.22
2023-05-24T19:03:50.510Z,3.42
2023-05-24T19:06:19.865Z,3.83
2023-05-24T19:08:55.929Z,3.28
2023-05-24T19:12:11.856Z,3.28
2023-05-24T19:14:57.318Z,3.22
2023-05-24T19:26:19.848Z,3.20
2023-05-24T19:28:54.592Z,3.58
2023-05-24T19:31:27.577Z,3.78
2023-05-24T19:34:02.392Z,5.20
2023-05-24T19:36:33.324Z,4.80
2023-05-24T19:39:04.001Z,3.63
2023-05-24T19:41:41.624Z,4.00
2023-05-24T19:44:18.825Z,3.50
2023-05-24T19:46:56.812Z,4.07
2023-05-24T19:49:26.331Z,4.50
2023-05-24T19:51:57.434Z,3.58
2023-05-24T19:54:26.788Z,3.67
2023-05-24T19:57:05.497Z,3.50
2023-05-24T19:59:35.436Z,4.40
2023-05-24T20:02:21.301Z,3.53
2023-05-24T20:07:33.313Z,3.35
2023-05-24T20:10:02.554Z,3.25
2023-05-24T20:12:34.633Z,3.22
2023-05-24T20:15:05.616Z,2.95
2023-05-24T20:18:00.298Z,3.60
2023-05-24T20:20:29.747Z,4.07
2023-05-24T20:23:13.887Z,3.58
2023-05-24T20:28:34.576Z,3.08
2023-05-24T20:31:12.912Z,4.30
2023-05-24T20:33:46.838Z,3.72
2023-05-24T20:36:20.491Z,4.00
2023-05-24T20:38:51.538Z,3.40
2023-05-24T20:41:23.126Z,3.47
2023-05-24T20:43:52.807Z,3.60
2023-05-24T20:46:22.873Z,3.58
2023-05-24T20:49:08.195Z,3.60
2023-05-24T20:51:40.385Z,3.90
2023-05-24T20:54:18.754Z,3.33
2023-05-24T20:56:54.130Z,3.60
2023-05-24T20:59:32.314Z,3.45
2023-05-24T21:02:06.651Z,3.55
2023-05-24T21:13:40.018Z,3.60
2023-05-24T21:16:47.469Z,3.25
2023-05-24T21:23:31.208Z,3.50
2023-05-24T21:26:24.301Z,3.25
2023-05-24T21:32:14.037Z,3.45
2023-05-24T21:35:07.239Z,3.15
2023-05-24T21:37:51.167Z,2.80
2023-05-24T21:40:37.494Z,3.05
2023-05-24T21:46:38.001Z,3.25
2023-05-24T21:49:13.810Z,3.08
2023-05-24T21:52:38.496Z,3.42
2023-05-24T21:55:43.379Z,3.63
2023-05-24T22:01:10.881Z,3.25
2023-05-24T22:06:55.530Z,3.55
2023-05-24T22:09:52.203Z,3.10
2023-05-24T22:12:28.517Z,3.47
2023-05-24T22:15:15.184Z,3.53
2023-05-24T22:17:51.036Z,3.85
2023-05-24T22:20:29.013Z,4.13
2023-05-24T22:23:01.148Z,3.90
2023-05-24T22:25:35.713Z,3.50
2023-05-24T22:28:05.616Z,3.70
2023-05-24T22:30:37.226Z,3.92
2023-05-24T22:33:08.221Z,3.88
2023-05-24T22:35:39.473Z,3.72
2023-05-24T22:38:09.075Z,4.10
2023-05-24T22:40:42.370Z,3.78
2023-05-24T22:43:18.758Z,3.75
2023-05-24T22:45:49.923Z,3.88
2023-05-24T22:48:22.495Z,3.83
2023-05-24T22:51:00.901Z,3.53
2023-05-24T22:53:31.493Z,3.85
2023-05-24T22:56:04.927Z,3.65
2023-05-24T22:58:35.330Z,4.00
2023-05-24T23:01:05.491Z,3.67
2023-05-24T23:03:40.296Z,4.20
2023-05-24T23:06:12.341Z,3.88
2023-05-24T23:08:44.390Z,4.15
2023-05-24T23:11:32.890Z,3.78
2023-05-24T23:14:04.378Z,4.80
2023-05-24T23:16:35.051Z,4.00
2023-05-24T23:22:07.721Z,4.00
2023-05-24T23:24:38.244Z,4.07
2023-05-24T23:27:12.610Z,4.47
2023-05-24T23:29:42.678Z,3.75
2023-05-24T23:32:14.454Z,4.30
2023-05-24T23:34:44.072Z,4.38
2023-05-24T23:37:14.671Z,3.75
2023-05-24T23:39:44.689Z,4.45
2023-05-24T23:42:21.797Z,4.32
2023-05-24T23:45:00.685Z,4.22
2023-05-24T23:47:30.665Z,4.32
2023-05-24T23:49:59.808Z,4.00
2023-05-24T23:52:29.671Z,3.83
2023-05-24T23:54:59.540Z,4.30
2023-05-24T23:57:35.099Z,4.68
